Time;durP1;ratioP1;P1;durP2;ratioP2;P2;SDS_P1;SDS_P2;PMS_P1;PMS_P2;Temp;Humidity;BMP_temperature;BMP_pressure;BME280_temperature;BME280_humidity;BME280_pressure;Samples;Min_cycle;Max_cycle;Signal;HPM_P1;HPM_P2
2022/03/14 00:01:54;;;;;;;1.17;0.80;;;21.00;52.20;;;;;;4988890;28;20194;-59
2022/03/14 00:04:25;;;;;;;1.35;0.80;;;21.10;52.10;;;;;;4990286;28;20264;-59
2022/03/14 00:06:55;;;;;;;2.15;0.90;;;21.00;52.70;;;;;;4991315;28;20217;-59
2022/03/14 00:09:27;;;;;;;1.40;0.93;;;21.10;52.10;;;;;;4992509;28;20212;-58
2022/03/14 00:11:57;;;;;;;1.65;0.80;;;21.10;52.00;;;;;;4992344;28;20202;-57
2022/03/14 00:14:28;;;;;;;1.55;0.82;;;21.10;52.00;;;;;;4992752;28;20201;-59
2022/03/14 00:17:06;;;;;;;1.55;0.90;;;21.10;52.00;;;;;;4992061;28;20236;-49
2022/03/14 00:19:36;;;;;;;1.73;0.85;;;21.10;52.00;;;;;;4991899;28;20668;-58
2022/03/14 00:22:10;;;;;;;2.25;0.80;;;21.10;52.00;;;;;;4992031;28;20264;-58
2022/03/14 00:24:40;;;;;;;1.25;0.70;;;21.20;52.00;;;;;;4991249;28;20781;-58
2022/03/14 00:27:11;;;;;;;1.30;0.80;;;21.20;52.00;;;;;;4990430;28;20698;-58
2022/03/14 00:29:41;;;;;;;1.75;0.80;;;21.20;52.00;;;;;;4991379;28;20202;-59
2022/03/14 00:32:14;;;;;;;2.03;0.80;;;21.20;52.00;;;;;;4992336;28;20206;-59
2022/03/14 00:34:44;;;;;;;1.35;0.90;;;21.20;51.90;;;;;;4991783;28;20251;-59
2022/03/14 00:37:15;;;;;;;2.08;0.90;;;21.20;51.90;;;;;;4991344;28;20201;-59
2022/03/14 00:39:47;;;;;;;1.30;0.98;;;21.20;51.90;;;;;;4992497;28;20269;-59
2022/03/14 00:42:20;;;;;;;1.30;0.77;;;21.30;51.90;;;;;;4992178;28;20212;-60
2022/03/14 00:44:51;;;;;;;2.55;1.00;;;21.30;51.90;;;;;;4992091;28;20213;-60
2022/03/14 00:47:24;;;;;;;1.67;0.90;;;21.30;51.90;;;;;;4992142;28;20245;-60
2022/03/14 00:49:54;;;;;;;1.05;0.60;;;21.30;51.80;;;;;;4991334;28;20197;-58
2022/03/14 00:52:25;;;;;;;3.75;0.80;;;21.30;51.80;;;;;;4990861;28;20189;-59
2022/03/14 00:54:56;;;;;;;1.52;0.68;;;21.30;51.70;;;;;;4991898;28;20201;-60
2022/03/14 00:57:27;;;;;;;1.67;1.00;;;21.40;51.80;;;;;;4991558;28;20202;-59
2022/03/14 00:59:57;;;;;;;2.03;0.88;;;21.40;51.70;;;;;;4991273;28;20263;-59
2022/03/14 01:02:30;;;;;;;2.05;0.90;;;21.40;51.70;;;;;;4991099;28;20240;-51
2022/03/14 01:05:00;;;;;;;3.67;1.02;;;21.40;51.70;;;;;;4991078;28;20225;-59
2022/03/14 01:07:34;;;;;;;3.75;0.90;;;21.40;51.70;;;;;;4990856;28;20205;-59
2022/03/14 01:10:05;;;;;;;1.70;1.00;;;21.40;51.70;;;;;;4991760;28;20225;-58
2022/03/14 01:12:35;;;;;;;1.08;0.70;;;21.50;51.70;;;;;;4991583;28;20598;-58
2022/03/14 01:15:07;;;;;;;2.20;1.00;;;21.50;51.70;;;;;;4990363;28;20217;-53
2022/03/14 01:17:40;;;;;;;2.30;0.95;;;21.50;51.70;;;;;;4991410;28;20202;-59
2022/03/14 01:20:11;;;;;;;2.22;1.00;;;21.50;51.70;;;;;;4991245;28;20197;-58
2022/03/14 01:22:42;;;;;;;2.67;0.95;;;21.50;51.70;;;;;;4990940;28;20201;-59
2022/03/14 01:25:13;;;;;;;3.08;1.00;;;21.60;51.70;;;;;;4990904;28;20329;-57
2022/03/14 01:27:44;;;;;;;1.27;0.93;;;21.50;51.70;;;;;;4990709;28;20201;-49
2022/03/14 01:30:15;;;;;;;1.63;0.95;;;21.60;51.70;;;;;;4991190;28;20205;-57
2022/03/14 01:32:48;;;;;;;2.67;1.13;;;21.60;51.70;;;;;;4990986;28;20209;-58
2022/03/14 01:35:19;;;;;;;2.63;1.00;;;21.60;51.70;;;;;;4991297;28;20216;-59
2022/03/14 01:37:50;;;;;;;3.30;1.05;;;21.60;51.60;;;;;;4990903;28;20208;-59
2022/03/14 01:40:21;;;;;;;1.83;1.10;;;21.60;51.60;;;;;;4991607;28;20198;-59
2022/03/14 01:42:52;;;;;;;2.00;1.20;;;21.70;51.60;;;;;;4988706;28;20194;-58
2022/03/14 02:44:58;;;;;;;4.30;1.17;;;22.20;51.10;;;;;;6109550;23;20194;-53
2022/03/14 02:47:29;;;;;;;1.92;0.93;;;22.20;50.90;;;;;;4948363;29;20265;-55
2022/03/14 02:49:59;;;;;;;1.75;1.00;;;22.20;50.90;;;;;;4951092;28;20214;-55
2022/03/14 02:52:30;;;;;;;4.18;1.10;;;22.30;50.90;;;;;;4951048;28;20206;-56
2022/03/14 02:55:00;;;;;;;3.40;1.08;;;22.30;50.80;;;;;;4951976;28;20714;-55
2022/03/14 02:57:31;;;;;;;2.78;0.95;;;22.30;50.80;;;;;;4970313;28;20204;-56
2022/03/14 03:00:05;;;;;;;2.50;0.95;;;22.30;50.70;;;;;;4969721;28;20252;-57
2022/03/14 03:02:37;;;;;;;1.33;1.00;;;22.30;50.70;;;;;;4969999;28;20189;-53
2022/03/14 03:05:08;;;;;;;5.10;1.33;;;22.40;50.70;;;;;;4969416;28;20228;-57
2022/03/14 03:07:39;;;;;;;3.35;0.80;;;22.40;50.80;;;;;;4967089;28;20665;-56
2022/03/14 03:10:11;;;;;;;2.92;1.08;;;22.40;50.70;;;;;;4968728;28;20206;-55
2022/03/14 03:12:41;;;;;;;2.08;1.00;;;22.40;50.70;;;;;;4969608;28;20222;-56
2022/03/14 03:15:16;;;;;;;2.10;1.02;;;22.50;50.70;;;;;;4969198;28;20222;-49
2022/03/14 03:17:46;;;;;;;2.58;0.85;;;22.50;50.70;;;;;;4969711;28;20193;-48
2022/03/14 03:20:17;;;;;;;2.20;1.00;;;22.50;50.70;;;;;;4969914;28;20197;-59
2022/03/14 03:22:47;;;;;;;2.58;1.08;;;22.60;50.90;;;;;;4969416;28;20198;-55
2022/03/14 03:25:18;;;;;;;4.15;1.08;;;22.60;51.00;;;;;;4969954;28;20218;-51
2022/03/14 03:27:49;;;;;;;4.00;1.30;;;22.70;50.90;;;;;;4968974;28;20202;-52
2022/03/14 03:30:21;;;;;;;3.05;1.42;;;22.70;51.00;;;;;;4969632;28;20190;-54
2022/03/14 03:32:52;;;;;;;1.70;1.00;;;22.80;51.00;;;;;;4968911;28;20216;-57
2022/03/14 03:35:22;;;;;;;7.18;1.25;;;22.80;51.00;;;;;;4969976;28;20214;-56
2022/03/14 03:37:53;;;;;;;4.57;1.00;;;22.80;50.90;;;;;;4968263;28;20228;-56
2022/03/14 03:40:24;;;;;;;3.70;1.23;;;22.90;50.80;;;;;;4973450;28;20214;-56
2022/03/14 03:42:54;;;;;;;2.35;0.90;;;22.90;50.70;;;;;;4964169;28;20208;-55
2022/03/14 04:47:28;;;;;;;2.72;1.15;;;23.60;49.40;;;;;;4970461;28;20222;-56
2022/03/14 04:49:59;;;;;;;1.15;0.68;;;23.60;49.40;;;;;;4971603;28;20217;-55
2022/03/14 04:52:31;;;;;;;1.83;0.77;;;23.70;49.30;;;;;;4972287;28;20649;-56
2022/03/14 04:55:02;;;;;;;2.38;1.15;;;23.70;49.30;;;;;;4973616;28;20252;-56
2022/03/14 04:57:33;;;;;;;2.85;1.00;;;23.70;49.40;;;;;;4991496;28;20229;-56
2022/03/14 05:00:05;;;;;;;1.80;0.88;;;23.70;49.20;;;;;;4991201;28;20240;-57
2022/03/14 05:02:37;;;;;;;1.60;0.80;;;23.70;49.30;;;;;;4991286;28;20709;-57
2022/03/14 05:05:11;;;;;;;3.20;1.20;;;23.70;49.20;;;;;;4990425;28;20189;-56
2022/03/14 05:07:41;;;;;;;3.33;0.90;;;23.80;49.10;;;;;;4991070;28;20276;-56
2022/03/14 05:10:12;;;;;;;2.72;0.90;;;23.80;49.00;;;;;;4990962;28;20260;-57
2022/03/14 05:12:43;;;;;;;1.98;0.98;;;23.80;48.90;;;;;;4991322;28;20201;-56
2022/03/14 05:15:16;;;;;;;3.75;1.02;;;23.80;48.90;;;;;;4990576;28;20264;-53
2022/03/14 05:17:49;;;;;;;3.38;1.05;;;23.80;48.80;;;;;;4990943;28;20206;-56
2022/03/14 05:20:19;;;;;;;2.55;1.20;;;23.90;48.80;;;;;;4990293;28;20193;-57
2022/03/14 05:22:51;;;;;;;2.47;1.00;;;23.90;48.70;;;;;;4990674;28;20201;-55
2022/03/14 05:25:23;;;;;;;3.63;1.42;;;23.90;48.60;;;;;;4990941;28;20300;-52
2022/03/14 05:27:56;;;;;;;5.35;1.52;;;23.90;48.60;;;;;;4990894;28;20257;-55
2022/03/14 05:30:28;;;;;;;3.70;1.63;;;23.90;48.50;;;;;;4990571;28;20711;-55
2022/03/14 05:33:01;;;;;;;3.97;1.45;;;24.00;48.50;;;;;;4990063;28;20205;-56
2022/03/14 05:35:32;;;;;;;4.45;1.70;;;23.90;48.40;;;;;;4990829;28;20217;-56
2022/03/14 05:38:02;;;;;;;3.47;1.58;;;23.90;48.40;;;;;;4990913;28;20276;-55
2022/03/14 05:40:33;;;;;;;5.38;1.70;;;24.00;48.40;;;;;;4990112;28;20202;-56
2022/03/14 05:43:09;;;;;;;3.15;1.40;;;24.00;48.50;;;;;;4990240;28;20194;-55
2022/03/14 05:45:39;;;;;;;4.38;1.80;;;24.00;48.50;;;;;;4990863;28;20279;-51
2022/03/14 05:48:12;;;;;;;3.28;1.48;;;24.00;48.50;;;;;;4990766;28;20202;-55
2022/03/14 05:50:42;;;;;;;3.88;1.58;;;24.00;48.50;;;;;;4989587;28;20193;-55
2022/03/14 05:53:13;;;;;;;4.80;1.45;;;24.00;48.40;;;;;;4990431;28;20654;-55
2022/03/14 05:55:44;;;;;;;2.50;1.52;;;24.00;48.50;;;;;;4990131;28;20614;-56
2022/03/14 05:58:14;;;;;;;2.10;1.25;;;24.00;48.40;;;;;;4990480;28;20198;-56
2022/03/14 06:00:45;;;;;;;3.08;1.40;;;24.00;48.40;;;;;;4989474;28;20201;-56
2022/03/14 06:03:17;;;;;;;3.42;1.25;;;24.00;48.40;;;;;;4990284;28;20210;-55
2022/03/14 06:05:48;;;;;;;5.45;1.30;;;24.00;48.40;;;;;;4988970;28;20217;-55
2022/03/14 06:08:19;;;;;;;3.63;1.52;;;24.00;48.30;;;;;;4989647;28;20208;-55
2022/03/14 06:10:49;;;;;;;2.80;1.20;;;24.00;48.30;;;;;;4990058;28;20543;-53
2022/03/14 06:13:20;;;;;;;3.75;1.50;;;24.00;48.40;;;;;;4989617;28;20226;-55
2022/03/14 06:15:51;;;;;;;4.28;1.48;;;23.90;48.30;;;;;;4989695;28;20217;-56
2022/03/14 06:18:23;;;;;;;2.50;1.30;;;23.90;48.30;;;;;;4989552;28;20201;-55
2022/03/14 06:20:54;;;;;;;3.28;1.50;;;23.90;48.30;;;;;;4990522;28;20193;-56
2022/03/14 06:23:24;;;;;;;3.92;1.40;;;23.90;48.40;;;;;;4989078;28;20202;-56
2022/03/14 06:25:55;;;;;;;3.60;1.38;;;23.90;48.40;;;;;;4989442;28;20221;-55
2022/03/14 06:28:26;;;;;;;4.63;1.30;;;23.90;48.40;;;;;;4990043;28;20647;-54
2022/03/14 06:30:56;;;;;;;5.25;1.52;;;23.90;48.40;;;;;;4990362;28;20190;-54
2022/03/14 06:33:28;;;;;;;2.88;1.30;;;23.80;48.50;;;;;;4990227;28;20425;-51
2022/03/14 06:35:59;;;;;;;2.53;0.98;;;23.80;48.50;;;;;;4989272;28;20260;-56
2022/03/14 06:38:30;;;;;;;4.25;1.13;;;23.80;47.60;;;;;;4989142;28;20193;-54
2022/03/14 06:41:01;;;;;;;4.60;1.50;;;23.70;47.30;;;;;;4988637;28;20185;-56
2022/03/14 06:43:32;;;;;;;4.43;1.38;;;23.50;47.10;;;;;;4989769;28;20226;-56
2022/03/14 07:45:42;;;;;;;2.20;1.00;;;22.80;49.20;;;;;;5886645;23;20225;-53
2022/03/14 07:48:13;;;;;;;3.28;1.45;;;22.80;49.30;;;;;;4970858;28;20383;-54
2022/03/14 07:50:43;;;;;;;4.38;1.00;;;22.80;49.30;;;;;;4970436;28;20202;-56
2022/03/14 07:53:14;;;;;;;1.70;0.73;;;22.70;49.30;;;;;;4970279;28;20231;-55
2022/03/14 07:55:45;;;;;;;2.95;1.00;;;22.70;49.30;;;;;;4976114;28;20217;-56
2022/03/14 07:58:15;;;;;;;1.63;0.90;;;22.70;49.30;;;;;;4990204;28;20711;-56
2022/03/14 08:00:48;;;;;;;2.33;0.90;;;22.70;49.30;;;;;;4989994;28;20201;-56
2022/03/14 08:03:18;;;;;;;3.42;1.10;;;22.60;49.30;;;;;;4989639;28;20267;-56
2022/03/14 08:06:00;;;;;;;5.15;1.50;;;22.60;49.40;;;;;;4990134;28;20272;-56
2022/03/14 08:08:30;;;;;;;2.63;1.10;;;22.60;49.40;;;;;;4990341;28;20197;-55
2022/03/14 08:11:02;;;;;;;3.38;0.98;;;22.60;49.40;;;;;;4990281;28;20349;-57
2022/03/14 08:13:32;;;;;;;2.15;0.75;;;22.60;49.40;;;;;;4990303;28;20206;-57
2022/03/14 08:16:05;;;;;;;1.73;0.70;;;22.60;49.50;;;;;;4989663;28;20222;-54
2022/03/14 08:18:35;;;;;;;1.75;0.80;;;22.50;49.50;;;;;;4989386;28;20198;-57
2022/03/14 08:21:06;;;;;;;1.80;0.93;;;22.50;49.50;;;;;;4989749;28;20205;-53
2022/03/14 08:23:37;;;;;;;2.00;0.75;;;22.50;49.60;;;;;;4989633;28;20202;-57
2022/03/14 08:26:07;;;;;;;2.33;1.00;;;22.50;49.60;;;;;;4993174;28;20221;-58
2022/03/14 08:28:38;;;;;;;1.60;0.93;;;22.50;49.60;;;;;;4988573;28;20276;-48
2022/03/14 08:31:11;;;;;;;1.67;0.82;;;22.40;49.60;;;;;;4991843;28;20201;-57
2022/03/14 08:33:42;;;;;;;2.92;1.00;;;22.40;49.60;;;;;;4991042;28;20202;-56
2022/03/14 08:36:13;;;;;;;1.73;0.70;;;22.40;49.60;;;;;;4990764;28;20213;-56
2022/03/14 08:38:43;;;;;;;1.52;0.80;;;22.40;49.60;;;;;;4991695;28;20206;-57
2022/03/14 08:41:16;;;;;;;3.08;1.10;;;22.40;49.60;;;;;;4991523;28;20691;-58
2022/03/14 08:43:47;;;;;;;2.42;0.85;;;22.40;49.70;;;;;;4991338;28;20308;-56
2022/03/14 08:46:20;;;;;;;1.83;0.80;;;22.30;49.60;;;;;;4990935;28;20221;-58
2022/03/14 08:48:51;;;;;;;1.75;0.82;;;22.30;49.60;;;;;;4991489;28;20949;-61
2022/03/14 08:51:21;;;;;;;1.52;0.77;;;22.30;49.60;;;;;;4991177;28;20646;-59
2022/03/14 08:53:52;;;;;;;1.80;0.88;;;22.20;49.60;;;;;;4991869;28;20201;-57
2022/03/14 08:56:23;;;;;;;1.63;1.05;;;22.20;49.60;;;;;;4991088;28;20264;-57
2022/03/14 08:58:53;;;;;;;3.65;1.15;;;22.20;49.60;;;;;;4990248;28;20571;-59
2022/03/14 09:01:26;;;;;;;2.25;1.00;;;22.20;49.70;;;;;;4991501;28;20253;-59
2022/03/14 09:03:56;;;;;;;3.05;0.93;;;22.20;49.70;;;;;;4991368;28;20205;-59
2022/03/14 09:06:28;;;;;;;1.23;0.88;;;22.10;49.70;;;;;;4990449;28;20221;-56
2022/03/14 09:08:59;;;;;;;3.22;0.90;;;22.10;49.70;;;;;;4990935;28;20194;-54
2022/03/14 09:11:29;;;;;;;1.60;0.73;;;22.10;49.70;;;;;;4991171;28;20189;-58
2022/03/14 09:14:00;;;;;;;1.75;0.70;;;22.10;49.70;;;;;;4991483;28;20697;-58
2022/03/14 09:16:35;;;;;;;2.28;0.98;;;22.10;49.70;;;;;;4990085;28;20221;-57
2022/03/14 09:19:06;;;;;;;2.25;0.88;;;22.10;49.80;;;;;;4991239;28;20276;-58
2022/03/14 09:21:36;;;;;;;0.95;0.65;;;22.00;49.70;;;;;;4990525;28;20344;-60
2022/03/14 09:24:07;;;;;;;2.95;0.90;;;22.10;49.80;;;;;;4990978;28;20205;-59
2022/03/14 09:26:38;;;;;;;2.50;1.00;;;22.00;49.70;;;;;;4991329;28;20643;-53
2022/03/14 09:29:09;;;;;;;1.60;0.90;;;22.00;49.80;;;;;;4990501;28;20197;-60
2022/03/14 09:31:41;;;;;;;1.48;0.60;;;22.00;49.80;;;;;;4991319;28;20578;-60
2022/03/14 09:34:12;;;;;;;2.58;1.00;;;22.00;49.80;;;;;;4990684;28;20252;-59
2022/03/14 09:36:42;;;;;;;1.90;0.90;;;22.00;49.80;;;;;;4989807;28;20692;-60
2022/03/14 09:39:17;;;;;;;2.13;0.90;;;21.90;49.80;;;;;;4990954;28;20257;-60
2022/03/14 09:41:49;;;;;;;2.53;0.95;;;21.90;49.80;;;;;;4991207;28;20247;-60
2022/03/14 09:44:23;;;;;;;1.70;0.95;;;21.90;49.90;;;;;;4990029;28;20204;-59
2022/03/14 09:46:57;;;;;;;2.47;0.90;;;21.80;49.80;;;;;;4990148;28;20233;-61
2022/03/14 09:49:29;;;;;;;2.15;0.80;;;21.80;49.80;;;;;;4991037;28;20248;-59
2022/03/14 09:52:01;;;;;;;2.13;1.00;;;21.80;49.90;;;;;;4990321;28;20244;-55
2022/03/14 09:54:31;;;;;;;2.85;0.95;;;21.80;49.90;;;;;;4990160;28;20280;-60
2022/03/14 09:57:02;;;;;;;1.88;1.00;;;21.70;49.90;;;;;;4990008;28;20260;-59
2022/03/14 09:59:34;;;;;;;1.20;0.77;;;21.70;49.90;;;;;;4990024;28;20260;-60
2022/03/14 10:02:07;;;;;;;2.63;0.82;;;21.70;49.90;;;;;;4990000;28;20284;-57
2022/03/14 10:04:38;;;;;;;1.60;0.85;;;21.70;50.00;;;;;;4989748;28;20252;-60
2022/03/14 10:07:09;;;;;;;2.22;0.80;;;21.70;49.90;;;;;;4990209;28;20221;-59
2022/03/14 10:09:40;;;;;;;1.38;0.82;;;21.60;49.90;;;;;;4990509;28;20727;-59
2022/03/14 10:12:12;;;;;;;2.58;0.80;;;21.60;49.90;;;;;;4990713;28;20256;-60
2022/03/14 10:14:43;;;;;;;1.85;1.00;;;21.60;50.00;;;;;;4990035;28;20672;-60
2022/03/14 10:17:16;;;;;;;1.10;0.70;;;21.60;50.00;;;;;;4990413;28;20224;-60
2022/03/14 10:19:56;;;;;;;1.67;0.77;;;21.60;50.00;;;;;;4989214;28;20194;-61
2022/03/14 10:22:27;;;;;;;2.55;0.90;;;21.50;50.00;;;;;;4990481;28;20248;-60
2022/03/14 10:25:05;;;;;;;2.33;0.80;;;21.50;50.00;;;;;;4989415;28;20202;-59
2022/03/14 10:27:38;;;;;;;2.05;0.68;;;21.50;50.00;;;;;;4988825;28;20291;-58
2022/03/14 10:30:23;;;;;;;1.50;0.80;;;21.50;50.00;;;;;;4989335;28;20206;-60
2022/03/14 10:33:02;;;;;;;1.33;0.80;;;21.40;50.00;;;;;;4990206;28;20189;-60
2022/03/14 10:35:38;;;;;;;1.38;0.80;;;21.40;50.00;;;;;;4989165;28;20708;-60
2022/03/14 10:38:09;;;;;;;1.92;0.70;;;21.40;50.10;;;;;;4989089;28;20201;-58
2022/03/14 10:40:41;;;;;;;3.83;0.70;;;21.40;50.10;;;;;;4989756;28;20201;-60
2022/03/14 10:43:22;;;;;;;1.20;0.68;;;21.40;50.10;;;;;;4989902;28;20194;-60
2022/03/14 10:45:53;;;;;;;1.23;0.70;;;21.30;50.10;;;;;;4989712;28;20209;-61
2022/03/14 10:48:43;;;;;;;1.73;0.70;;;21.30;50.10;;;;;;4989273;28;20256;-60
2022/03/14 10:51:18;;;;;;;2.75;0.90;;;21.30;50.20;;;;;;4990003;28;20229;-58
2022/03/14 10:54:04;;;;;;;0.95;0.57;;;21.20;50.10;;;;;;4988511;28;20212;-60
2022/03/14 10:56:35;;;;;;;2.13;0.85;;;21.20;50.20;;;;;;4989183;28;20615;-60
2022/03/14 10:59:10;;;;;;;0.98;0.70;;;21.30;50.20;;;;;;4989137;28;20213;-60
2022/03/14 11:02:01;;;;;;;1.75;0.70;;;21.20;50.20;;;;;;4989253;28;20201;-60
2022/03/14 11:04:43;;;;;;;1.58;0.80;;;21.20;50.80;;;;;;4988742;28;20724;-60
2022/03/14 11:07:14;;;;;;;1.50;0.90;;;21.20;50.20;;;;;;4989667;28;20613;-61
2022/03/14 11:09:47;;;;;;;1.25;0.70;;;21.20;50.20;;;;;;4989327;28;20193;-60
2022/03/14 11:12:19;;;;;;;1.38;0.80;;;21.20;50.30;;;;;;4992192;28;20661;-60
2022/03/14 11:14:56;;;;;;;0.80;0.60;;;21.20;50.30;;;;;;4992104;28;20241;-61
2022/03/14 11:17:28;;;;;;;1.83;0.80;;;21.10;50.30;;;;;;4990547;28;20700;-59
2022/03/14 11:20:01;;;;;;;1.52;0.70;;;21.10;50.30;;;;;;4990703;28;20233;-59
2022/03/14 11:22:33;;;;;;;2.13;0.63;;;21.10;50.40;;;;;;4990378;28;20228;-60
2022/03/14 11:25:04;;;;;;;1.77;0.70;;;21.10;50.40;;;;;;4990032;28;20197;-60
2022/03/14 11:27:39;;;;;;;2.17;0.80;;;21.10;50.40;;;;;;4990602;28;20225;-60
2022/03/14 11:30:11;;;;;;;1.15;0.60;;;21.00;50.40;;;;;;4990781;28;20256;-58
2022/03/14 11:32:42;;;;;;;1.30;0.70;;;21.00;50.40;;;;;;4990884;28;20221;-58
2022/03/14 11:35:14;;;;;;;1.38;0.80;;;21.00;50.50;;;;;;4990592;28;20197;-61
2022/03/14 11:37:47;;;;;;;1.65;0.80;;;21.00;50.50;;;;;;4990604;28;20198;-60
2022/03/14 11:40:18;;;;;;;0.80;0.60;;;21.00;50.40;;;;;;4990363;28;21062;-60
2022/03/14 11:42:49;;;;;;;1.10;0.70;;;21.00;50.50;;;;;;4990427;28;20678;-61
2022/03/14 11:45:20;;;;;;;1.30;0.70;;;21.00;50.50;;;;;;4989994;28;20240;-60
2022/03/14 11:47:53;;;;;;;1.48;0.60;;;20.90;50.50;;;;;;4986727;28;20276;-59
2022/03/14 11:50:26;;;;;;;0.90;0.70;;;20.90;50.50;;;;;;4990368;28;20193;-61
2022/03/14 11:53:05;;;;;;;1.63;0.80;;;20.90;50.50;;;;;;4990632;28;20193;-60
2022/03/14 11:55:35;;;;;;;1.00;0.70;;;20.90;50.50;;;;;;4989701;28;20220;-60
2022/03/14 11:58:06;;;;;;;0.90;0.70;;;20.90;50.50;;;;;;4989614;28;20280;-60
2022/03/14 12:00:40;;;;;;;1.67;0.90;;;20.90;50.50;;;;;;4993076;28;20264;-60
2022/03/14 12:03:31;;;;;;;0.68;0.50;;;20.90;50.60;;;;;;4993934;28;20247;-60
2022/03/14 12:06:04;;;;;;;2.13;0.80;;;20.80;50.60;;;;;;4993685;28;20217;-57
2022/03/14 12:09:04;;;;;;;0.85;0.60;;;20.80;51.10;;;;;;4993839;28;20225;-57
2022/03/14 12:11:45;;;;;;;1.27;0.70;;;20.80;50.60;;;;;;4993630;28;20284;-60
2022/03/14 12:14:36;;;;;;;1.80;0.70;;;20.80;50.60;;;;;;4994320;28;20283;-59
2022/03/14 12:17:26;;;;;;;1.63;0.90;;;20.80;50.60;;;;;;4993712;28;20728;-60
2022/03/14 12:20:00;;;;;;;1.15;0.60;;;20.80;50.60;;;;;;4990720;28;20186;-60
2022/03/14 12:22:45;;;;;;;2.67;0.88;;;20.80;50.60;;;;;;4993863;28;20209;-60
2022/03/14 12:25:37;;;;;;;0.98;0.60;;;20.80;50.60;;;;;;4993623;28;20700;-60
2022/03/14 12:28:26;;;;;;;1.08;0.47;;;20.70;50.60;;;;;;4993656;28;20217;-60
2022/03/14 12:31:02;;;;;;;1.30;0.80;;;20.70;51.20;;;;;;4993893;28;20201;-57
2022/03/14 12:33:37;;;;;;;1.67;0.60;;;20.70;50.70;;;;;;4993770;28;20243;-60
2022/03/14 12:36:35;;;;;;;1.63;0.60;;;20.70;50.70;;;;;;4993169;28;20280;-61
2022/03/14 12:39:27;;;;;;;1.38;0.60;;;20.70;50.70;;;;;;4993402;28;20197;-60
2022/03/14 12:42:24;;;;;;;1.67;0.85;;;20.70;50.70;;;;;;4985818;28;20728;-60
2022/03/14 12:45:19;;;;;;;1.00;0.60;;;20.70;50.70;;;;;;4993517;28;20223;-60
2022/03/14 12:47:57;;;;;;;0.60;0.55;;;20.60;50.70;;;;;;4993419;28;20228;-60
2022/03/14 12:50:58;;;;;;;1.35;0.80;;;20.60;50.70;;;;;;4993278;28;20197;-58
2022/03/14 12:53:46;;;;;;;0.90;0.60;;;20.60;50.70;;;;;;4993640;28;20264;-55
2022/03/14 12:56:29;;;;;;;1.00;0.60;;;20.60;50.70;;;;;;4992854;28;20213;-60
2022/03/14 12:59:03;;;;;;;2.10;0.70;;;20.60;50.70;;;;;;4993391;28;20261;-62
2022/03/14 13:01:36;;;;;;;1.15;0.65;;;20.60;50.70;;;;;;4992867;28;20197;-61
2022/03/14 13:04:14;;;;;;;1.10;0.65;;;20.60;50.70;;;;;;4993069;28;20823;-61
2022/03/14 13:06:48;;;;;;;1.15;0.63;;;20.60;50.70;;;;;;4992572;28;20591;-61
2022/03/14 13:09:30;;;;;;;1.10;0.90;;;20.60;50.70;;;;;;4992772;28;20291;-61
2022/03/14 13:12:05;;;;;;;1.10;0.65;;;20.50;50.70;;;;;;4992160;28;20197;-56
2022/03/14 13:14:41;;;;;;;1.10;0.57;;;20.50;50.70;;;;;;4993021;28;20201;-59
2022/03/14 13:17:13;;;;;;;0.77;0.57;;;20.50;50.70;;;;;;4992893;28;20224;-60
2022/03/14 13:19:44;;;;;;;0.70;0.43;;;20.50;50.80;;;;;;4992838;28;20198;-61
2022/03/14 13:22:15;;;;;;;1.20;0.80;;;20.50;50.80;;;;;;4992776;28;20205;-61
2022/03/14 13:24:49;;;;;;;1.33;0.70;;;20.40;50.70;;;;;;4992627;28;20201;-61
2022/03/14 13:27:27;;;;;;;1.52;0.82;;;20.40;50.80;;;;;;4992218;28;20229;-59
2022/03/14 13:29:57;;;;;;;1.20;0.60;;;20.40;50.80;;;;;;4992588;28;20283;-61
2022/03/14 13:32:28;;;;;;;1.08;0.60;;;20.40;50.80;;;;;;4992468;28;20202;-62
2022/03/14 13:35:09;;;;;;;1.23;0.60;;;20.40;50.80;;;;;;4992163;28;20194;-61
2022/03/14 13:37:45;;;;;;;1.25;0.70;;;20.40;50.80;;;;;;4992252;28;20193;-62
2022/03/14 13:40:24;;;;;;;1.00;0.60;;;20.30;50.80;;;;;;4992369;28;20201;-59
2022/03/14 13:42:56;;;;;;;1.33;0.65;;;20.40;50.80;;;;;;4991898;28;20197;-62
2022/03/14 13:45:28;;;;;;;0.73;0.52;;;20.30;50.80;;;;;;4975684;28;20225;-61
2022/03/14 13:47:59;;;;;;;0.85;0.70;;;20.30;50.80;;;;;;4990627;28;20205;-59
2022/03/14 13:50:30;;;;;;;1.60;0.63;;;20.30;50.80;;;;;;4991893;28;20261;-59
2022/03/14 13:53:01;;;;;;;0.80;0.52;;;20.30;50.80;;;;;;5003743;23;20393;-58
2022/03/14 13:55:32;;;;;;;1.00;0.60;;;20.30;50.90;;;;;;4991957;28;20291;-58
2022/03/14 13:58:04;;;;;;;0.60;0.60;;;20.30;50.80;;;;;;4991458;28;20197;-58
2022/03/14 14:00:35;;;;;;;0.98;0.40;;;20.20;50.80;;;;;;4992080;28;20201;-58
2022/03/14 14:03:06;;;;;;;0.80;0.50;;;20.20;50.80;;;;;;4991888;28;20623;-56
2022/03/14 14:05:40;;;;;;;1.23;0.57;;;20.20;50.80;;;;;;4991758;28;20263;-57
2022/03/14 14:08:11;;;;;;;1.27;0.65;;;20.20;50.90;;;;;;4991371;28;20192;-55
2022/03/14 14:10:42;;;;;;;1.80;0.57;;;20.20;50.90;;;;;;4991770;28;20197;-55
2022/03/14 14:13:14;;;;;;;0.90;0.70;;;20.10;50.80;;;;;;4991331;28;20201;-56
2022/03/14 14:15:46;;;;;;;0.60;0.50;;;20.10;50.80;;;;;;4991249;28;20214;-58
2022/03/14 14:18:21;;;;;;;1.08;0.68;;;20.10;50.80;;;;;;4972192;28;20221;-58
2022/03/14 14:20:56;;;;;;;0.95;0.63;;;20.10;50.80;;;;;;4972403;28;20256;-54
2022/03/14 14:23:28;;;;;;;0.82;0.60;;;20.10;50.80;;;;;;4971641;28;20205;-59
2022/03/14 14:25:58;;;;;;;0.98;0.50;;;20.10;50.80;;;;;;4971662;28;20309;-60
2022/03/14 14:28:31;;;;;;;1.17;0.50;;;20.00;50.80;;;;;;4964524;28;20619;-57
2022/03/14 14:31:02;;;;;;;1.48;0.52;;;20.00;50.80;;;;;;4971921;28;20214;-56
2022/03/14 14:33:34;;;;;;;1.30;0.65;;;20.00;50.80;;;;;;4972175;28;20570;-56
2022/03/14 14:36:06;;;;;;;1.25;0.50;;;20.00;50.80;;;;;;4971925;28;20228;-57
2022/03/14 14:38:37;;;;;;;1.40;0.80;;;20.00;50.90;;;;;;4971509;28;20206;-56
2022/03/14 14:41:12;;;;;;;1.23;0.55;;;20.00;50.90;;;;;;4971763;28;20190;-54
2022/03/14 14:43:45;;;;;;;0.80;0.50;;;20.00;50.90;;;;;;4991106;28;20205;-59
2022/03/14 14:46:16;;;;;;;0.82;0.45;;;19.90;50.90;;;;;;4986329;28;20226;-55
2022/03/14 14:48:51;;;;;;;0.73;0.43;;;19.90;50.90;;;;;;4971621;28;20281;-51
2022/03/14 14:51:32;;;;;;;;;;;;;;;;;;;;;
2022/03/14 15:54:08;;;;;;;0.88;0.50;;;19.50;50.90;;;;;;5093182;23;20587;-66
2022/03/14 15:56:42;;;;;;;0.57;0.32;;;19.50;51.00;;;;;;4994150;28;20221;-67
2022/03/14 15:59:16;;;;;;;1.02;0.60;;;19.50;50.90;;;;;;4994267;28;20215;-66
2022/03/14 16:01:47;;;;;;;0.57;0.40;;;19.50;50.90;;;;;;4994270;28;20209;-62
2022/03/14 16:04:18;;;;;;;0.60;0.57;;;19.50;51.00;;;;;;4994133;28;20197;-66
2022/03/14 16:06:48;;;;;;;1.95;0.70;;;19.50;51.00;;;;;;4993677;28;20253;-58
2022/03/14 16:09:22;;;;;;;0.82;0.43;;;19.50;51.00;;;;;;4993265;28;20225;-56
2022/03/14 16:11:53;;;;;;;0.50;0.40;;;19.50;51.10;;;;;;4994437;28;20248;-66
2022/03/14 16:14:24;;;;;;;1.20;0.60;;;19.50;51.00;;;;;;4994304;28;20201;-66
2022/03/14 16:16:54;;;;;;;0.68;0.50;;;19.50;51.00;;;;;;4983674;28;20441;-67
2022/03/14 16:19:28;;;;;;;0.88;0.60;;;19.50;51.10;;;;;;4974357;28;20288;-67
2022/03/14 16:21:58;;;;;;;0.57;0.50;;;19.50;51.10;;;;;;4971223;28;20249;-65
2022/03/14 16:24:31;;;;;;;1.23;0.70;;;19.40;51.00;;;;;;4992795;28;20210;-67
2022/03/14 16:27:05;;;;;;;0.50;0.40;;;19.40;51.10;;;;;;4993746;28;20217;-66
2022/03/14 16:29:36;;;;;;;0.70;0.55;;;19.40;51.10;;;;;;4993916;28;20767;-67
2022/03/14 16:32:08;;;;;;;0.90;0.50;;;19.40;51.10;;;;;;4993908;28;20260;-66
2022/03/14 16:34:42;;;;;;;0.50;0.40;;;19.40;51.10;;;;;;4993735;28;20202;-65
2022/03/14 16:37:15;;;;;;;0.60;0.60;;;19.40;51.10;;;;;;4993351;28;20221;-65
2022/03/14 16:39:48;;;;;;;0.77;0.65;;;19.40;51.10;;;;;;4954623;28;20262;-65
2022/03/14 16:42:19;;;;;;;0.65;0.43;;;19.40;51.10;;;;;;4954725;28;20209;-63
2022/03/14 16:44:50;;;;;;;1.15;0.50;;;19.40;51.10;;;;;;4954145;28;20230;-65
2022/03/14 16:47:20;;;;;;;1.20;0.75;;;19.30;51.10;;;;;;4968020;28;20221;-65
2022/03/14 16:49:53;;;;;;;0.70;0.52;;;19.30;51.10;;;;;;4973840;28;20752;-65
2022/03/14 16:52:24;;;;;;;0.60;0.40;;;19.30;51.10;;;;;;4989795;23;20233;-60
2022/03/14 16:54:57;;;;;;;0.95;0.60;;;19.30;51.20;;;;;;4993336;28;20225;-60
2022/03/14 16:57:30;;;;;;;0.98;0.50;;;19.30;51.20;;;;;;4993111;28;20649;-59
2022/03/14 17:00:01;;;;;;;0.90;0.68;;;19.30;51.20;;;;;;4984849;28;20249;-59
2022/03/14 17:02:32;;;;;;;0.40;0.40;;;19.30;51.20;;;;;;4973957;28;20247;-61
2022/03/14 17:05:02;;;;;;;1.30;0.55;;;19.30;51.20;;;;;;4974110;28;20327;-60
2022/03/14 17:07:33;;;;;;;1.52;0.60;;;19.30;51.20;;;;;;4973952;28;20218;-60
2022/03/14 17:10:07;;;;;;;1.25;0.50;;;19.30;51.20;;;;;;4992768;28;20616;-61
2022/03/14 17:12:37;;;;;;;1.15;0.82;;;19.30;51.20;;;;;;4992904;28;20217;-62
2022/03/14 17:15:09;;;;;;;0.75;0.50;;;19.30;51.30;;;;;;4992923;28;20197;-61
2022/03/14 17:17:39;;;;;;;0.98;0.63;;;19.30;51.30;;;;;;4977343;28;20690;-59
2022/03/14 17:20:11;;;;;;;0.73;0.50;;;19.20;51.20;;;;;;4973630;28;20203;-62